Flight Track Log - Related Links

Times and Time Zones

All times are in EDT time to prevent confusion due to time zone crossing. See the CJC4864 flight status page for this flight to view local times or setup timezone preferences in your user account.

Time Position Orientation Groundspeed Altitude Reporting Facility
EDT Latitude Longitude Course Direction KTS MPH feet Rate Location/Type
Sat 07:51:10 PM 38.9833 -77.5167 333° Northwest 165 190 3,100  Level Potomac TRACON
Sat 07:52:10 PM 39.0333 -77.5500 38° Northeast 218 251 4,700 1,587 Climbing Potomac TRACON
Sat 07:53:11 PM 39.0833 -77.5000 46° Northeast 259 298 6,300 1,722 Climbing Potomac TRACON
Sat 07:54:05 PM 39.1333 -77.4333 57° Northeast 275 316 8,000 1,388 Climbing Potomac TRACON
Sat 07:55:12 PM 39.1833 -77.3333 57° Northeast 306 352 9,100 451 Climbing Potomac TRACON
Sat 07:56:18 PM 39.2333 -77.2333 57° Northeast 316 364 9,000 283 Descending Potomac TRACON
Sat 07:57:19 PM 39.2833 -77.1333 57° Northeast 308 354 9,700 938 Climbing Potomac TRACON
Sat 07:58:26 PM 39.3333 -77.0333 90° East 318 366 11,000 645 Climbing Potomac TRACON
Sat 07:59:20 PM 39.3333 -76.9167 90° East 343 395 11,000  Level Potomac TRACON
Sat 08:00:20 PM 39.3333 -76.8000 90° East 339 390 11,000  Level Potomac TRACON
Sat 08:01:27 PM 39.3333 -76.6667 90° East 341 392 11,000  Level Potomac TRACON
Sat 08:02:27 PM 39.3333 -76.5500 102° East 339 390 11,000  Level Potomac TRACON
Sat 08:03:22 PM 39.3167 -76.4500 90° East 337 388 11,000  Level Potomac TRACON
Sat 08:04:22 PM 39.3167 -76.3167 91° East 336 387 11,000  Level Potomac TRACON
Sat 08:04:59 PM 39.3153 -76.2411 93° East 338 389 11,000  Level FAA TRACON SMA TRACON (SMA)
Sat 08:05:39 PM 39.3125 -76.1669 92° East 337 388 11,000  Level FAA TRACON SMA TRACON (SMA)
Sat 08:06:19 PM 39.3100 -76.0836 65° Northeast 334 384 11,000  Level FAA TRACON SMA TRACON (SMA)
Sat 08:06:59 PM 39.3353 -76.0125 45° Northeast 331 381 11,000  Level FAA TRACON SMA TRACON (SMA)
Sat 08:07:39 PM 39.3750 -75.9617 41° Northeast 325 374 11,000  Level FAA TRACON SMA TRACON (SMA)
Sat 08:08:20 PM 39.4225 -75.9089 53° Northeast 324 373 11,000  Level FAA TRACON SMA TRACON (SMA)
Sat 08:09:00 PM 39.4597 -75.8444 60° Northeast 330 380 11,000  Level FAA TRACON SMA TRACON (SMA)
Sat 08:09:40 PM 39.4875 -75.7825 59° Northeast 330 380 11,000  Level FAA TRACON SMA TRACON (SMA)
Sat 08:10:19 PM 39.5206 -75.7111 59° Northeast 330 380 11,000  Level FAA TRACON SMA TRACON (SMA)
Sat 08:11:03 PM 39.5533 -75.6408 58° Northeast 330 380 11,000  Level FAA TRACON SMA TRACON (SMA)
Sat 08:11:40 PM 39.5831 -75.5786 58° Northeast 330 380 11,000  Level FAA TRACON SMA TRACON (SMA)
Sat 08:12:20 PM 39.6161 -75.5086 59° Northeast 333 383 11,000  Level FAA TRACON SMA TRACON (SMA)
Sat 08:13:00 PM 39.6500 -75.4344 59° Northeast 341 392 11,000  Level FAA TRACON SMA TRACON (SMA)
Sat 08:13:40 PM 39.6811 -75.3683 59° Northeast 348 400 11,000  Level FAA TRACON SMA TRACON (SMA)
Sat 08:14:19 PM 39.7150 -75.2936 59° Northeast 348 400 11,000  Level FAA TRACON SMA TRACON (SMA)
Sat 08:14:59 PM 39.7489 -75.2206 59° Northeast 342 394 11,000 -525 Level FAA TRACON SMA TRACON (SMA)
Sat 08:15:39 PM 39.7767 -75.1592 59° Northeast 328 377 10,300 -1,050 Descending FAA TRACON SMA TRACON (SMA)
Sat 08:16:19 PM 39.8078 -75.0911 59° Northeast 318 366 9,600 -1,050 Descending FAA TRACON SMA TRACON (SMA)
Sat 08:16:59 PM 39.8383 -75.0236 53° Northeast 306 352 8,900 -1,050 Descending FAA TRACON SMA TRACON (SMA)
Sat 08:17:39 PM 39.8742 -74.9614 47° Northeast 309 356 8,200 -963 Descending FAA TRACON SMA TRACON (SMA)
Sat 08:18:20 PM 39.9097 -74.9119 45° Northeast 302 348 7,600 -889 Descending FAA TRACON SMA TRACON (SMA)
Sat 08:19:00 PM 39.9494 -74.8603 47° Northeast 297 342 7,000 -450 Descending FAA TRACON SMA TRACON (SMA)
Sat 08:19:40 PM 39.9892 -74.8050 49° Northeast 298 343 7,000  Level FAA TRACON SMA TRACON (SMA)
Sat 08:20:20 PM 40.0222 -74.7553 49° Northeast 294 338 7,000 75 Level FAA TRACON SMA TRACON (SMA)
Sat 08:21:00 PM 40.0597 -74.6997 48° Northeast 293 337 7,100 75 Climbing FAA TRACON SMA TRACON (SMA)
Sat 08:21:40 PM 40.0978 -74.6439 44° Northeast 297 342 7,100 -75 Level FAA TRACON SMA TRACON (SMA)
Sat 08:22:20 PM 40.1344 -74.5969 13° North 303 349 7,000  Descending FAA TRACON SMA TRACON (SMA)
Sat 08:23:00 PM 40.1894 -74.5797 11° North 296 341 7,100  Climbing FAA TRACON SMA TRACON (SMA)
Sat 08:23:40 PM 40.2447 -74.5661 11° North 290 334 7,000 -380 Descending FAA TRACON SMA TRACON (SMA)
Sat 08:24:19 PM 40.2872 -74.5550 North 252 290 6,600 -684 Descending FAA TRACON SMA TRACON (SMA)
Sat 08:24:59 PM 40.3356 -74.5511 North 249 287 6,100 -417 Descending FAA TRACON SMA TRACON (SMA)
Sat 08:25:31 PM 40.3667 -74.5500 360° North 249 287 6,100 -65 Level New York TRACON
Sat 08:26:31 PM 40.4333 -74.5500 360° North 242 278 6,000 -50 Descending New York TRACON
Sat 08:27:31 PM 40.5000 -74.5500 360° North 243 280 6,000 48 Level New York TRACON
Sat 08:28:37 PM 40.5833 -74.5500 360° North 244 281 6,100 -100 Climbing New York TRACON
Sat 08:29:31 PM 40.6333 -74.5500 North 245 282 5,800 -500 Descending New York TRACON
Sat 08:30:37 PM 40.7167 -74.5333 360° North 245 282 5,100 -400 Descending New York TRACON
Sat 08:31:31 PM 40.7833 -74.5333 37° Northeast 246 283 5,000  Descending New York TRACON
Sat 08:32:31 PM 40.8333 -74.4833 45° Northeast 253 291 5,100  Climbing New York TRACON
Sat 08:33:31 PM 40.8833 -74.4167 56° Northeast 252 290 5,000 -50 Descending New York TRACON
Sat 08:34:31 PM 40.9167 -74.3500 78° East 256 295 5,000 -450 Level New York TRACON
Sat 08:35:31 PM 40.9333 -74.2500 105° East 251 289 4,100 -571 Descending New York TRACON
Sat 08:36:37 PM 40.9167 -74.1667 108° East 213 245 3,800 -476 Descending New York TRACON
Sat 08:37:37 PM 40.9000 -74.1000 108° East 200 230 3,100 -700 Descending New York TRACON

Login

Don't have an account? Register now (free) for customized features, flight alerts, and more!